Time;durP1;ratioP1;P1;durP2;ratioP2;P2;SDS_P1;SDS_P2;PMS_P1;PMS_P2;Temp;Humidity;BMP_temperature;BMP_pressure;BME280_temperature;BME280_humidity;BME280_pressure;Samples;Min_cycle;Max_cycle;Signal;HPM_P1;HPM_P2
2022/03/27 00:00:17;;;;;;;32.30;17.92;;;;;;;;;;4978234;28;20487;-68
2022/03/27 00:02:43;;;;;;;34.03;18.48;;;;;;;;;;4962046;28;20078;-68
2022/03/27 00:05:09;;;;;;;36.28;17.98;;;;;;;;;;4961570;28;20050;-69
2022/03/27 00:07:34;;;;;;;37.40;18.98;;;;;;;;;;4955066;28;20085;-69
2022/03/27 00:10:00;;;;;;;33.22;18.02;;;;;;;;;;4961183;28;20102;-68
2022/03/27 00:12:25;;;;;;;35.33;17.77;;;;;;;;;;4956068;28;20063;-69
2022/03/27 00:14:50;;;;;;;40.63;17.85;;;;;;;;;;4961371;28;20027;-68
2022/03/27 00:17:15;;;;;;;35.33;17.02;;;;;;;;;;4959006;28;20754;-69
2022/03/27 00:19:40;;;;;;;35.93;17.10;;;;;;;;;;4978442;28;20509;-68
2022/03/27 00:22:06;;;;;;;30.20;16.23;;;;;;;;;;4981156;28;20300;-68
2022/03/27 00:24:31;;;;;;;37.70;15.82;;;;;;;;;;4981190;28;20262;-69
2022/03/27 00:26:56;;;;;;;39.17;16.98;;;;;;;;;;4980071;28;20117;-68
2022/03/27 00:29:22;;;;;;;34.90;17.13;;;;;;;;;;4985409;28;20026;-68
2022/03/27 00:31:47;;;;;;;31.75;16.15;;;;;;;;;;4975072;28;20301;-68
2022/03/27 00:34:12;;;;;;;32.55;15.98;;;;;;;;;;4976499;28;20030;-69
2022/03/27 00:36:38;;;;;;;32.90;15.30;;;;;;;;;;4972284;28;20027;-68
2022/03/27 00:39:03;;;;;;;31.17;14.10;;;;;;;;;;4959427;28;20475;-69
2022/03/27 00:41:30;;;;;;;31.75;14.35;;;;;;;;;;4970772;28;20022;-68
2022/03/27 00:43:55;;;;;;;31.80;14.20;;;;;;;;;;4960194;28;20094;-69
2022/03/27 00:46:20;;;;;;;30.80;14.98;;;;;;;;;;4974345;28;20019;-66
2022/03/27 00:48:46;;;;;;;36.75;14.40;;;;;;;;;;4980767;28;20026;-68
2022/03/27 00:51:11;;;;;;;29.40;13.63;;;;;;;;;;4984729;28;20023;-68
2022/03/27 00:53:36;;;;;;;26.50;13.82;;;;;;;;;;4957944;28;20024;-68
2022/03/27 00:56:01;;;;;;;33.83;15.65;;;;;;;;;;4975814;28;20176;-68
2022/03/27 00:58:27;;;;;;;26.48;13.98;;;;;;;;;;4987877;28;20022;-68
2022/03/27 01:00:52;;;;;;;27.93;12.87;;;;;;;;;;4983313;28;20076;-68
2022/03/27 01:03:20;;;;;;;27.77;15.40;;;;;;;;;;4975678;28;20294;-68
2022/03/27 01:05:46;;;;;;;31.95;15.32;;;;;;;;;;4980644;28;20360;-68
2022/03/27 01:08:12;;;;;;;31.85;14.07;;;;;;;;;;4973670;28;20453;-68
2022/03/27 01:10:38;;;;;;;27.15;14.80;;;;;;;;;;4958237;28;20602;-68
2022/03/27 01:13:12;;;;;;;32.47;14.70;;;;;;;;;;4964375;28;20023;-68
2022/03/27 01:15:39;;;;;;;38.78;14.02;;;;;;;;;;4957582;28;20042;-68
2022/03/27 01:18:05;;;;;;;31.00;13.85;;;;;;;;;;4971541;28;20555;-68
2022/03/27 01:20:39;;;;;;;31.70;14.07;;;;;;;;;;4981109;28;20396;-69
2022/03/27 01:23:07;;;;;;;33.28;14.40;;;;;;;;;;4979995;28;20022;-69
2022/03/27 01:25:33;;;;;;;23.65;13.73;;;;;;;;;;4978866;28;20114;-69
2022/03/27 01:27:58;;;;;;;37.55;14.27;;;;;;;;;;4980718;28;20101;-69
2022/03/27 01:30:23;;;;;;;31.38;13.90;;;;;;;;;;4976029;28;20082;-69
2022/03/27 01:32:51;;;;;;;28.10;14.38;;;;;;;;;;4977587;28;20051;-69
2022/03/27 01:35:16;;;;;;;33.08;14.05;;;;;;;;;;4979034;28;20050;-69
2022/03/27 01:37:41;;;;;;;27.02;13.20;;;;;;;;;;4978043;28;20515;-69
2022/03/27 01:40:07;;;;;;;28.63;14.52;;;;;;;;;;4966553;28;20055;-69
2022/03/27 01:42:32;;;;;;;27.70;14.13;;;;;;;;;;4977671;28;20027;-69
2022/03/27 01:44:57;;;;;;;34.40;13.88;;;;;;;;;;4986171;28;20044;-69
2022/03/27 01:47:22;;;;;;;38.25;14.98;;;;;;;;;;4978130;28;20660;-68
2022/03/27 01:49:48;;;;;;;26.73;13.38;;;;;;;;;;4975668;28;20039;-69
2022/03/27 01:52:14;;;;;;;29.98;14.48;;;;;;;;;;4984605;28;20101;-68
2022/03/27 01:54:39;;;;;;;28.92;13.38;;;;;;;;;;4991932;28;20026;-68
2022/03/27 01:57:04;;;;;;;28.02;14.02;;;;;;;;;;4986595;28;20030;-69
2022/03/27 01:59:29;;;;;;;31.15;14.80;;;;;;;;;;4985174;28;20018;-68
2022/03/27 02:01:55;;;;;;;23.60;13.60;;;;;;;;;;4990309;28;20041;-69
2022/03/27 02:04:20;;;;;;;30.98;13.85;;;;;;;;;;4993099;28;20022;-66
2022/03/27 02:06:45;;;;;;;30.53;13.60;;;;;;;;;;4986321;28;20049;-68
2022/03/27 02:09:12;;;;;;;26.33;13.02;;;;;;;;;;4990411;28;20314;-68
2022/03/27 02:11:38;;;;;;;27.98;14.23;;;;;;;;;;4986366;28;20545;-68
2022/03/27 02:14:03;;;;;;;27.02;13.40;;;;;;;;;;4987713;28;20030;-69
2022/03/27 02:16:28;;;;;;;26.00;13.48;;;;;;;;;;4990660;28;20062;-69
2022/03/27 02:18:53;;;;;;;31.00;13.43;;;;;;;;;;4986689;28;20018;-69
2022/03/27 02:21:19;;;;;;;34.08;14.18;;;;;;;;;;4991922;28;20031;-69
2022/03/27 02:23:44;;;;;;;30.83;14.65;;;;;;;;;;4985203;28;20031;-68
2022/03/27 02:26:09;;;;;;;27.38;13.25;;;;;;;;;;4982704;28;20101;-68
2022/03/27 02:28:35;;;;;;;32.38;14.93;;;;;;;;;;4991157;28;20098;-69
2022/03/27 02:31:00;;;;;;;32.42;15.10;;;;;;;;;;4981891;28;20019;-68
2022/03/27 02:33:25;;;;;;;33.05;14.63;;;;;;;;;;4974263;28;20691;-68
2022/03/27 02:35:51;;;;;;;27.30;15.00;;;;;;;;;;4994261;28;20085;-69
2022/03/27 02:38:16;;;;;;;31.58;14.82;;;;;;;;;;4988524;28;20026;-69
2022/03/27 02:40:42;;;;;;;27.27;14.00;;;;;;;;;;4973747;28;20038;-66
2022/03/27 02:43:09;;;;;;;35.67;16.20;;;;;;;;;;4985721;28;20098;-68
2022/03/27 02:45:34;;;;;;;33.47;15.48;;;;;;;;;;4984080;28;20084;-68
2022/03/27 02:48:00;;;;;;;32.33;14.95;;;;;;;;;;4986124;28;20027;-69
2022/03/27 02:50:26;;;;;;;31.02;15.73;;;;;;;;;;4985320;28;20098;-69
2022/03/27 02:52:52;;;;;;;36.95;15.73;;;;;;;;;;4980146;28;20434;-69
2022/03/27 02:55:18;;;;;;;33.30;15.75;;;;;;;;;;4981212;28;20093;-66
2022/03/27 02:57:43;;;;;;;29.85;15.70;;;;;;;;;;4982169;28;20023;-66
2022/03/27 03:00:09;;;;;;;34.80;14.90;;;;;;;;;;4986625;28;20030;-67
2022/03/27 03:02:34;;;;;;;32.97;15.73;;;;;;;;;;4986796;28;20068;-66
2022/03/27 03:05:00;;;;;;;29.65;14.60;;;;;;;;;;4987622;28;20026;-66
2022/03/27 03:07:25;;;;;;;30.92;15.68;;;;;;;;;;4982610;28;20502;-66
2022/03/27 03:09:51;;;;;;;37.03;16.15;;;;;;;;;;4983821;28;20364;-66
2022/03/27 03:12:16;;;;;;;37.40;15.10;;;;;;;;;;4981218;28;20031;-67
2022/03/27 03:14:41;;;;;;;32.63;15.52;;;;;;;;;;4984242;28;20038;-66
2022/03/27 03:17:07;;;;;;;32.30;14.23;;;;;;;;;;4986875;28;20057;-66
2022/03/27 03:19:33;;;;;;;37.85;15.38;;;;;;;;;;4979621;28;20424;-66
2022/03/27 03:21:58;;;;;;;32.55;14.13;;;;;;;;;;4982048;28;20057;-66
2022/03/27 03:24:27;;;;;;;32.00;15.68;;;;;;;;;;4984301;28;20504;-66
2022/03/27 03:26:53;;;;;;;32.83;15.18;;;;;;;;;;4976134;28;20117;-66
2022/03/27 03:29:18;;;;;;;33.13;15.38;;;;;;;;;;4980225;28;20118;-66
2022/03/27 03:31:44;;;;;;;33.90;15.27;;;;;;;;;;4982734;28;20042;-66
2022/03/27 03:34:09;;;;;;;27.35;14.38;;;;;;;;;;4968088;28;20026;-67
2022/03/27 03:36:34;;;;;;;25.83;13.20;;;;;;;;;;4983210;28;20026;-66
2022/03/27 03:38:59;;;;;;;30.42;14.30;;;;;;;;;;4988577;28;20089;-67
2022/03/27 03:41:24;;;;;;;30.63;13.73;;;;;;;;;;4986461;28;20392;-66
2022/03/27 03:43:49;;;;;;;27.90;13.70;;;;;;;;;;4983694;28;20281;-66
2022/03/27 03:46:15;;;;;;;26.95;13.85;;;;;;;;;;4980975;28;20094;-66
2022/03/27 03:48:40;;;;;;;27.93;13.40;;;;;;;;;;4984656;28;20022;-68
2022/03/27 03:51:05;;;;;;;25.77;13.30;;;;;;;;;;4978909;28;20317;-68
2022/03/27 03:53:31;;;;;;;25.75;12.77;;;;;;;;;;4972320;28;20055;-68
2022/03/27 03:55:56;;;;;;;31.23;14.27;;;;;;;;;;4969846;28;20483;-68
2022/03/27 03:58:21;;;;;;;26.17;13.75;;;;;;;;;;4980301;28;20081;-68
2022/03/27 04:00:47;;;;;;;31.70;14.38;;;;;;;;;;4979695;28;20030;-66
2022/03/27 04:03:13;;;;;;;26.40;14.25;;;;;;;;;;4980607;28;20058;-66
2022/03/27 04:05:38;;;;;;;32.80;15.60;;;;;;;;;;4976294;28;20031;-66
2022/03/27 04:08:03;;;;;;;32.28;15.35;;;;;;;;;;4980892;28;20026;-66
2022/03/27 04:10:28;;;;;;;31.33;14.15;;;;;;;;;;4978383;28;20391;-66
2022/03/27 04:12:54;;;;;;;35.73;14.03;;;;;;;;;;4977877;28;20022;-66
2022/03/27 04:15:19;;;;;;;31.95;14.63;;;;;;;;;;4980207;28;20281;-66
2022/03/27 04:17:45;;;;;;;29.25;14.38;;;;;;;;;;4979846;28;20046;-66
2022/03/27 04:20:11;;;;;;;25.60;14.15;;;;;;;;;;4983438;28;20101;-66
2022/03/27 04:22:36;;;;;;;29.95;14.30;;;;;;;;;;4987672;28;20018;-66
2022/03/27 04:25:02;;;;;;;39.67;14.87;;;;;;;;;;5003406;23;20580;-65
2022/03/27 04:27:27;;;;;;;29.15;14.45;;;;;;;;;;5015371;28;20279;-65
2022/03/27 04:29:52;;;;;;;29.40;14.50;;;;;;;;;;5021112;28;20025;-64
2022/03/27 04:32:18;;;;;;;32.40;15.03;;;;;;;;;;5013258;28;20797;-64
2022/03/27 04:34:43;;;;;;;35.25;14.38;;;;;;;;;;5019288;28;20289;-65
2022/03/27 04:37:08;;;;;;;32.65;14.13;;;;;;;;;;5017393;28;20029;-64
2022/03/27 04:39:33;;;;;;;36.50;14.43;;;;;;;;;;5016478;28;20316;-64
2022/03/27 04:41:58;;;;;;;33.00;15.02;;;;;;;;;;5017927;28;20029;-65
2022/03/27 04:44:24;;;;;;;37.33;14.57;;;;;;;;;;5013164;28;20433;-64
2022/03/27 04:46:49;;;;;;;31.27;13.95;;;;;;;;;;5021448;28;20049;-64
2022/03/27 04:49:14;;;;;;;32.70;14.75;;;;;;;;;;5013742;28;20045;-65
2022/03/27 04:51:39;;;;;;;33.05;15.70;;;;;;;;;;5019474;28;20020;-64
2022/03/27 04:54:04;;;;;;;29.08;14.82;;;;;;;;;;5014728;28;20389;-65
2022/03/27 04:56:31;;;;;;;33.00;15.80;;;;;;;;;;5015656;28;20072;-65
2022/03/27 04:58:56;;;;;;;28.42;14.88;;;;;;;;;;5013277;28;20291;-65
2022/03/27 05:01:21;;;;;;;28.33;14.10;;;;;;;;;;5008246;28;20530;-65
2022/03/27 05:03:47;;;;;;;31.48;15.13;;;;;;;;;;5018728;28;20017;-65
2022/03/27 05:06:12;;;;;;;38.95;15.38;;;;;;;;;;5015787;28;20464;-64
2022/03/27 05:08:37;;;;;;;27.87;13.57;;;;;;;;;;5016407;28;20398;-64
2022/03/27 05:11:02;;;;;;;31.65;14.32;;;;;;;;;;5015885;28;20352;-65
2022/03/27 05:13:28;;;;;;;27.05;13.85;;;;;;;;;;5015847;28;20018;-64
2022/03/27 05:15:53;;;;;;;30.58;14.57;;;;;;;;;;5011286;28;20493;-65
2022/03/27 05:18:19;;;;;;;31.42;14.38;;;;;;;;;;5024031;28;20033;-64
2022/03/27 05:20:45;;;;;;;31.60;13.35;;;;;;;;;;5009252;28;20543;-64
2022/03/27 05:23:10;;;;;;;33.90;14.90;;;;;;;;;;5015367;28;20034;-64
2022/03/27 05:25:42;;;;;;;30.48;14.73;;;;;;;;;;5010159;28;20026;-65
2022/03/27 05:28:10;;;;;;;30.55;13.80;;;;;;;;;;5019916;28;20073;-64
2022/03/27 05:30:36;;;;;;;30.35;14.45;;;;;;;;;;5016406;28;20009;-64
2022/03/27 05:33:03;;;;;;;34.25;15.13;;;;;;;;;;5016953;28;20434;-64
2022/03/27 05:35:28;;;;;;;29.13;14.07;;;;;;;;;;5018932;28;20021;-65
2022/03/27 05:37:54;;;;;;;27.45;14.40;;;;;;;;;;5013510;28;20138;-65
2022/03/27 05:40:21;;;;;;;33.83;15.60;;;;;;;;;;5014703;28;20028;-65
2022/03/27 05:42:47;;;;;;;28.92;14.10;;;;;;;;;;5020827;28;20083;-65
2022/03/27 05:45:13;;;;;;;39.33;14.63;;;;;;;;;;5014804;28;20026;-65
2022/03/27 05:47:41;;;;;;;28.65;13.75;;;;;;;;;;5012014;28;20017;-65
2022/03/27 05:50:07;;;;;;;30.98;14.52;;;;;;;;;;5011727;28;20029;-64
2022/03/27 05:52:32;;;;;;;27.27;13.07;;;;;;;;;;5018546;28;20248;-65
2022/03/27 05:54:57;;;;;;;38.33;14.47;;;;;;;;;;5011908;28;20064;-64
2022/03/27 05:57:23;;;;;;;31.60;14.20;;;;;;;;;;5020916;28;20322;-65
2022/03/27 05:59:48;;;;;;;33.00;15.07;;;;;;;;;;5012215;28;20273;-66
2022/03/27 06:02:14;;;;;;;27.27;14.02;;;;;;;;;;5018331;28;20078;-64
2022/03/27 06:04:40;;;;;;;29.10;14.75;;;;;;;;;;5018809;28;20029;-64
2022/03/27 06:07:05;;;;;;;29.38;13.27;;;;;;;;;;5015526;28;20113;-63
2022/03/27 06:09:30;;;;;;;34.70;15.02;;;;;;;;;;5015052;28;20162;-64
2022/03/27 06:11:56;;;;;;;27.02;12.75;;;;;;;;;;5013588;28;20044;-64
2022/03/27 06:14:21;;;;;;;32.47;13.77;;;;;;;;;;5011737;28;20100;-64
2022/03/27 06:16:47;;;;;;;32.58;15.50;;;;;;;;;;5015196;28;20017;-66
2022/03/27 06:19:12;;;;;;;27.67;14.50;;;;;;;;;;5004538;28;20477;-64
2022/03/27 06:21:37;;;;;;;28.75;13.95;;;;;;;;;;5004818;28;20277;-64
2022/03/27 06:24:03;;;;;;;29.13;13.55;;;;;;;;;;5009906;28;20018;-64
2022/03/27 06:26:28;;;;;;;32.67;14.77;;;;;;;;;;5021125;28;20334;-64
2022/03/27 06:28:53;;;;;;;24.15;14.13;;;;;;;;;;5009381;28;20033;-64
2022/03/27 06:31:18;;;;;;;34.93;14.73;;;;;;;;;;5010276;28;20026;-64
2022/03/27 06:33:43;;;;;;;31.90;14.73;;;;;;;;;;5012833;28;20737;-64
2022/03/27 06:36:08;;;;;;;29.90;14.68;;;;;;;;;;5011290;28;20029;-64
2022/03/27 06:38:34;;;;;;;26.10;13.73;;;;;;;;;;4999727;28;20104;-64
2022/03/27 06:40:59;;;;;;;30.13;14.10;;;;;;;;;;5012404;28;20406;-64
2022/03/27 06:43:24;;;;;;;29.38;14.50;;;;;;;;;;5007208;28;20301;-64
2022/03/27 06:45:50;;;;;;;30.85;15.63;;;;;;;;;;5010226;28;20022;-64
2022/03/27 06:48:15;;;;;;;37.42;15.65;;;;;;;;;;5006937;28;20033;-64
2022/03/27 06:50:40;;;;;;;35.70;16.50;;;;;;;;;;4991409;28;20018;-64
2022/03/27 06:53:07;;;;;;;34.47;17.58;;;;;;;;;;4998157;28;20036;-64
2022/03/27 06:55:32;;;;;;;34.70;17.60;;;;;;;;;;5012517;28;20449;-64
2022/03/27 06:57:57;;;;;;;36.03;17.25;;;;;;;;;;5011149;28;20030;-64
2022/03/27 07:03:06;;;;;;;34.85;19.60;;;;;;;;;;4991988;28;20812;-65
2022/03/27 07:05:41;;;;;;;42.47;20.20;;;;;;;;;;5002109;28;20323;-64
2022/03/27 07:08:07;;;;;;;49.08;21.50;;;;;;;;;;5009475;28;20018;-64
2022/03/27 07:10:33;;;;;;;42.67;21.42;;;;;;;;;;5002798;28;20030;-64
2022/03/27 07:12:58;;;;;;;38.15;20.38;;;;;;;;;;4999057;28;20026;-65
2022/03/27 07:15:24;;;;;;;41.33;18.48;;;;;;;;;;5017723;28;20036;-64
2022/03/27 07:17:50;;;;;;;43.03;21.40;;;;;;;;;;5010697;28;20037;-64
2022/03/27 07:20:20;;;;;;;38.35;19.95;;;;;;;;;;5010351;28;20506;-64
2022/03/27 07:22:46;;;;;;;40.55;19.05;;;;;;;;;;5007729;28;20557;-64
2022/03/27 07:25:11;;;;;;;37.25;20.08;;;;;;;;;;5016304;28;20109;-64
2022/03/27 07:27:37;;;;;;;36.47;19.92;;;;;;;;;;5011835;28;20061;-65
2022/03/27 07:30:04;;;;;;;38.58;19.13;;;;;;;;;;5010946;28;20096;-65
2022/03/27 07:32:29;;;;;;;32.35;18.33;;;;;;;;;;5010623;28;20128;-64
2022/03/27 07:34:54;;;;;;;39.63;18.73;;;;;;;;;;5010719;28;20457;-64
2022/03/27 07:37:19;;;;;;;31.48;18.65;;;;;;;;;;5004582;28;20264;-65
2022/03/27 07:39:44;;;;;;;33.22;18.58;;;;;;;;;;5003930;28;20021;-65
2022/03/27 07:42:10;;;;;;;39.37;17.33;;;;;;;;;;5019605;28;20030;-65
2022/03/27 07:44:35;;;;;;;31.13;17.00;;;;;;;;;;5010596;28;20264;-65
2022/03/27 07:47:00;;;;;;;30.23;17.97;;;;;;;;;;5009489;28;20657;-65
2022/03/27 07:49:26;;;;;;;32.65;17.35;;;;;;;;;;5010618;28;20295;-65
2022/03/27 07:51:52;;;;;;;26.80;16.60;;;;;;;;;;5015169;28;20029;-65
2022/03/27 07:54:17;;;;;;;26.00;14.55;;;;;;;;;;5020606;28;20017;-65
2022/03/27 07:56:42;;;;;;;25.63;15.40;;;;;;;;;;5011896;28;20030;-64
2022/03/27 07:59:07;;;;;;;24.73;15.80;;;;;;;;;;5011790;28;20260;-65
2022/03/27 08:01:33;;;;;;;27.20;16.73;;;;;;;;;;5011314;28;20300;-65
2022/03/27 08:03:59;;;;;;;25.10;14.63;;;;;;;;;;5014552;28;20486;-64
2022/03/27 08:06:25;;;;;;;21.05;13.15;;;;;;;;;;5013912;28;20265;-64
2022/03/27 08:08:50;;;;;;;19.67;13.63;;;;;;;;;;4996122;28;20022;-65
2022/03/27 08:11:15;;;;;;;26.60;15.10;;;;;;;;;;5011163;28;20446;-64
2022/03/27 08:13:40;;;;;;;23.88;14.13;;;;;;;;;;5012542;28;20620;-64
2022/03/27 08:16:06;;;;;;;22.08;14.27;;;;;;;;;;5018487;28;20033;-64
2022/03/27 08:18:32;;;;;;;21.45;13.60;;;;;;;;;;5013159;28;20537;-64
2022/03/27 08:20:57;;;;;;;22.15;14.07;;;;;;;;;;5028247;28;20033;-65
2022/03/27 08:23:23;;;;;;;19.33;13.27;;;;;;;;;;5011361;28;20022;-64
2022/03/27 08:28:32;;;;;;;17.90;12.60;;;;;;;;;;5010082;28;20028;-65
2022/03/27 08:30:57;;;;;;;17.90;13.33;;;;;;;;;;5010382;28;20030;-64
2022/03/27 08:33:22;;;;;;;17.00;12.70;;;;;;;;;;5022491;28;20691;-64
2022/03/27 08:35:47;;;;;;;16.90;11.37;;;;;;;;;;5030627;28;20359;-64
2022/03/27 08:38:13;;;;;;;17.17;12.43;;;;;;;;;;5010511;28;20276;-65
2022/03/27 08:40:40;;;;;;;16.05;11.55;;;;;;;;;;5011628;28;20342;-65
2022/03/27 08:43:09;;;;;;;18.73;12.82;;;;;;;;;;5008460;28;20045;-64
2022/03/27 08:45:34;;;;;;;13.65;11.23;;;;;;;;;;5017359;28;20463;-64
2022/03/27 08:47:59;;;;;;;15.40;12.17;;;;;;;;;;5011053;28;20034;-65
2022/03/27 08:50:32;;;;;;;15.13;12.43;;;;;;;;;;5007820;28;20017;-64
2022/03/27 08:52:58;;;;;;;16.30;12.00;;;;;;;;;;5019703;28;20025;-64
2022/03/27 08:55:42;;;;;;;17.67;12.93;;;;;;;;;;5023834;28;20030;-65
2022/03/27 08:58:09;;;;;;;15.57;11.63;;;;;;;;;;5022719;28;20018;-64
2022/03/27 09:00:34;;;;;;;16.50;11.68;;;;;;;;;;5006824;28;20064;-64
2022/03/27 09:03:03;;;;;;;17.80;12.20;;;;;;;;;;5019002;28;20053;-64
2022/03/27 09:05:28;;;;;;;17.92;10.77;;;;;;;;;;5009779;28;20063;-64
2022/03/27 09:07:54;;;;;;;15.35;10.75;;;;;;;;;;5019332;28;20041;-64
2022/03/27 09:10:21;;;;;;;17.25;12.20;;;;;;;;;;5026525;28;20022;-65
2022/03/27 09:12:46;;;;;;;16.20;11.75;;;;;;;;;;5023230;28;20022;-64
2022/03/27 09:15:12;;;;;;;17.77;11.25;;;;;;;;;;5028117;28;20100;-64
2022/03/27 09:17:56;;;;;;;19.00;11.88;;;;;;;;;;5009389;28;20025;-64
2022/03/27 09:20:32;;;;;;;17.30;11.85;;;;;;;;;;5012383;28;20022;-64
2022/03/27 09:23:04;;;;;;;15.88;11.10;;;;;;;;;;5012335;28;20428;-64
2022/03/27 09:25:41;;;;;;;15.98;11.63;;;;;;;;;;5027014;28;20053;-65
2022/03/27 09:28:06;;;;;;;17.60;12.07;;;;;;;;;;5016636;28;20029;-64
2022/03/27 09:30:34;;;;;;;17.60;12.00;;;;;;;;;;5008934;28;20076;-64
2022/03/27 09:32:59;;;;;;;14.95;11.57;;;;;;;;;;5016539;28;20260;-64
2022/03/27 09:35:26;;;;;;;14.57;10.77;;;;;;;;;;5015621;28;20018;-64
2022/03/27 09:37:51;;;;;;;13.80;10.20;;;;;;;;;;5017219;28;20610;-64
2022/03/27 09:40:17;;;;;;;14.87;10.63;;;;;;;;;;5005953;28;20033;-64
2022/03/27 09:42:42;;;;;;;15.43;11.43;;;;;;;;;;5017532;28;20423;-64
2022/03/27 09:45:08;;;;;;;16.63;11.25;;;;;;;;;;5010177;28;20097;-64
2022/03/27 09:47:33;;;;;;;18.27;10.32;;;;;;;;;;5017677;28;20021;-64
2022/03/27 09:49:59;;;;;;;19.30;11.97;;;;;;;;;;5010582;28;20022;-64
2022/03/27 09:52:24;;;;;;;17.98;11.00;;;;;;;;;;5020018;28;20449;-64
2022/03/27 09:54:49;;;;;;;17.30;12.03;;;;;;;;;;5009429;28;20029;-64
2022/03/27 09:57:19;;;;;;;18.77;11.65;;;;;;;;;;5016890;28;20285;-64
2022/03/27 09:59:45;;;;;;;21.58;12.70;;;;;;;;;;5028335;28;20021;-64
2022/03/27 10:02:17;;;;;;;16.40;11.35;;;;;;;;;;5019697;28;20025;-64
2022/03/27 10:04:52;;;;;;;23.75;13.93;;;;;;;;;;5011863;28;20018;-64
2022/03/27 10:07:18;;;;;;;16.73;11.65;;;;;;;;;;5016075;28;20022;-64
2022/03/27 10:09:43;;;;;;;21.60;13.23;;;;;;;;;;5018493;28;20034;-65
2022/03/27 10:12:09;;;;;;;17.10;11.10;;;;;;;;;;5013095;28;20031;-65
2022/03/27 10:14:34;;;;;;;18.00;12.38;;;;;;;;;;5031421;28;20306;-64
2022/03/27 10:16:59;;;;;;;17.52;12.35;;;;;;;;;;5021682;28;20026;-65
2022/03/27 10:19:29;;;;;;;18.42;11.68;;;;;;;;;;5030523;28;20481;-64
2022/03/27 10:21:54;;;;;;;23.00;12.37;;;;;;;;;;5022698;28;20041;-64
2022/03/27 10:24:21;;;;;;;16.83;11.65;;;;;;;;;;5020025;28;20044;-64
2022/03/27 10:26:46;;;;;;;20.90;14.55;;;;;;;;;;5034786;22;20049;-70
2022/03/27 10:29:12;;;;;;;20.08;12.70;;;;;;;;;;5015698;28;20018;-70
2022/03/27 10:31:38;;;;;;;22.00;12.43;;;;;;;;;;5020164;28;20470;-71
2022/03/27 10:34:05;;;;;;;19.05;12.05;;;;;;;;;;5018453;28;20028;-68
2022/03/27 10:36:37;;;;;;;18.17;12.20;;;;;;;;;;5016959;28;20486;-71
2022/03/27 10:39:09;;;;;;;23.63;12.65;;;;;;;;;;5017378;28;20034;-68
2022/03/27 10:41:45;;;;;;;19.95;13.77;;;;;;;;;;5017289;28;20029;-68
2022/03/27 10:44:34;;;;;;;19.92;12.65;;;;;;;;;;5004266;28;20072;-68
2022/03/27 10:47:15;;;;;;;19.08;12.45;;;;;;;;;;5017685;28;20499;-68
2022/03/27 10:49:41;;;;;;;20.08;14.07;;;;;;;;;;5020811;28;20018;-68
2022/03/27 10:52:06;;;;;;;21.48;13.57;;;;;;;;;;5019173;28;20096;-69
2022/03/27 10:54:32;;;;;;;20.60;12.93;;;;;;;;;;5012089;28;20466;-68
2022/03/27 10:56:58;;;;;;;30.00;14.82;;;;;;;;;;5017120;28;20022;-68
2022/03/27 10:59:27;;;;;;;23.20;14.52;;;;;;;;;;5013818;28;20272;-69
2022/03/27 11:01:57;;;;;;;20.65;13.13;;;;;;;;;;5012767;28;20029;-71
2022/03/27 11:04:34;;;;;;;23.85;13.38;;;;;;;;;;5012850;28;20025;-70
2022/03/27 11:07:19;;;;;;;23.58;14.00;;;;;;;;;;5013062;28;20017;-70
2022/03/27 11:09:47;;;;;;;28.15;11.88;;;;;;;;;;5011306;28;20442;-71
2022/03/27 11:12:30;;;;;;;16.60;10.65;;;;;;;;;;5020634;28;20109;-69
2022/03/27 11:15:00;;;;;;;19.63;12.48;;;;;;;;;;5025209;28;20069;-68
2022/03/27 11:17:25;;;;;;;;;;;;;;;;;;5019542;28;20024;-69
2022/03/27 11:19:51;;;;;;;20.63;14.35;;;;;;;;;;5017409;28;19995;-71
2022/03/27 11:22:35;;;;;;;22.35;13.52;;;;;;;;;;5020682;28;20018;-69
2022/03/27 11:25:19;;;;;;;19.88;14.10;;;;;;;;;;4986073;28;20017;-69
2022/03/27 11:28:02;;;;;;;21.02;14.27;;;;;;;;;;5015624;28;20029;-69
2022/03/27 11:30:27;;;;;;;24.80;14.80;;;;;;;;;;4995473;28;20105;-69
2022/03/27 11:33:11;;;;;;;23.00;12.60;;;;;;;;;;5020995;28;20175;-69
2022/03/27 11:35:36;;;;;;;18.67;11.35;;;;;;;;;;5022571;28;20027;-68
2022/03/27 11:38:21;;;;;;;19.67;12.57;;;;;;;;;;5009073;28;20076;-69
2022/03/27 11:40:47;;;;;;;19.40;13.15;;;;;;;;;;5008038;28;20025;-69
2022/03/27 11:43:27;;;;;;;20.25;11.90;;;;;;;;;;5017330;28;20025;-69
2022/03/27 11:45:54;;;;;;;20.67;11.05;;;;;;;;;;5020199;28;20014;-69
2022/03/27 11:48:19;;;;;;;20.55;12.10;;;;;;;;;;5011303;28;20037;-70
2022/03/27 11:50:44;;;;;;;18.73;11.63;;;;;;;;;;5019460;28;20068;-70
2022/03/27 11:53:09;;;;;;;21.20;11.80;;;;;;;;;;5001012;28;20267;-70
2022/03/27 11:55:36;;;;;;;22.90;14.77;;;;;;;;;;4995314;28;20599;-70
2022/03/27 11:58:03;;;;;;;24.63;14.40;;;;;;;;;;5020086;28;20260;-70
2022/03/27 12:00:34;;;;;;;22.85;13.57;;;;;;;;;;5008736;28;20031;-70
2022/03/27 12:03:00;;;;;;;24.35;14.88;;;;;;;;;;5028567;28;20504;-70
2022/03/27 12:05:35;;;;;;;20.23;12.40;;;;;;;;;;5018766;28;20018;-70
2022/03/27 12:08:02;;;;;;;23.60;13.18;;;;;;;;;;5013305;28;20037;-70
2022/03/27 12:10:27;;;;;;;19.42;12.43;;;;;;;;;;4993148;28;20019;-70
2022/03/27 12:12:56;;;;;;;17.77;12.30;;;;;;;;;;5021827;28;20032;-70
2022/03/27 12:15:21;;;;;;;20.05;12.70;;;;;;;;;;5014748;28;20110;-71
2022/03/27 12:17:46;;;;;;;19.17;12.30;;;;;;;;;;5003131;28;20116;-71
2022/03/27 12:20:12;;;;;;;21.10;13.27;;;;;;;;;;5016503;28;20025;-71
2022/03/27 12:22:38;;;;;;;19.92;12.48;;;;;;;;;;5018360;28;20538;-70
2022/03/27 12:25:07;;;;;;;20.95;15.15;;;;;;;;;;5014417;28;20029;-68
2022/03/27 12:30:16;;;;;;;25.20;14.77;;;;;;;;;;5013496;28;20037;-69
2022/03/27 12:32:41;;;;;;;23.17;14.00;;;;;;;;;;5017900;28;20463;-69
2022/03/27 12:35:06;;;;;;;24.98;12.77;;;;;;;;;;5023503;28;20277;-69
2022/03/27 12:37:35;;;;;;;21.87;13.77;;;;;;;;;;5018980;28;20052;-70
2022/03/27 12:40:05;;;;;;;21.42;13.18;;;;;;;;;;5009106;28;20340;-69
2022/03/27 12:42:32;;;;;;;19.25;12.48;;;;;;;;;;5003487;28;20125;-69
2022/03/27 12:45:01;;;;;;;19.80;12.38;;;;;;;;;;5017153;28;20022;-69
2022/03/27 12:47:37;;;;;;;24.98;11.93;;;;;;;;;;5013383;28;20014;-69
2022/03/27 12:50:04;;;;;;;22.38;12.23;;;;;;;;;;5005857;28;20109;-70
2022/03/27 12:52:29;;;;;;;18.25;11.98;;;;;;;;;;5000205;28;20021;-70
2022/03/27 12:54:58;;;;;;;21.33;11.80;;;;;;;;;;4994963;28;20053;-70
2022/03/27 12:57:24;;;;;;;18.97;11.87;;;;;;;;;;5016909;28;20083;-69
2022/03/27 12:59:49;;;;;;;17.38;10.68;;;;;;;;;;5013573;28;20269;-69
2022/03/27 13:02:25;;;;;;;20.55;11.35;;;;;;;;;;5020019;28;20030;-70
2022/03/27 13:05:00;;;;;;;20.23;10.82;;;;;;;;;;5011288;28;20086;-70
2022/03/27 13:08:01;;;;;;;20.52;12.30;;;;;;;;;;5017348;28;20096;-70
2022/03/27 13:10:27;;;;;;;17.80;11.27;;;;;;;;;;4934664;29;20019;-70
2022/03/27 13:12:59;;;;;;;19.30;12.00;;;;;;;;;;4989367;28;20033;-70
2022/03/27 13:15:37;;;;;;;18.85;11.55;;;;;;;;;;5014217;28;20025;-71
2022/03/27 13:18:13;;;;;;;19.35;13.02;;;;;;;;;;5007420;28;20018;-71
2022/03/27 13:20:38;;;;;;;19.20;12.18;;;;;;;;;;5017962;28;20025;-70
2022/03/27 13:23:04;;;;;;;18.30;12.27;;;;;;;;;;5015533;28;20033;-71
2022/03/27 13:25:29;;;;;;;21.58;11.98;;;;;;;;;;5011337;28;20029;-71
2022/03/27 13:27:55;;;;;;;21.00;13.30;;;;;;;;;;5013140;28;20503;-71
2022/03/27 13:30:20;;;;;;;23.92;13.02;;;;;;;;;;5003842;28;20021;-71
2022/03/27 13:32:45;;;;;;;23.75;13.60;;;;;;;;;;5011433;28;20029;-72
2022/03/27 13:35:11;;;;;;;22.33;13.77;;;;;;;;;;5017551;28;20036;-71
2022/03/27 13:37:36;;;;;;;20.25;12.52;;;;;;;;;;5005307;28;20299;-71
2022/03/27 13:40:02;;;;;;;23.75;12.45;;;;;;;;;;4995919;28;20053;-72
2022/03/27 13:45:11;;;;;;;17.80;12.07;;;;;;;;;;5011356;28;20101;-71
2022/03/27 13:47:37;;;;;;;29.20;13.90;;;;;;;;;;5016767;28;20026;-71
2022/03/27 13:50:02;;;;;;;21.07;12.67;;;;;;;;;;5008954;28;20823;-71
2022/03/27 13:52:27;;;;;;;19.77;12.40;;;;;;;;;;5013907;28;20343;-71
2022/03/27 13:54:52;;;;;;;22.37;12.40;;;;;;;;;;4993769;28;20022;-70
2022/03/27 13:57:17;;;;;;;22.13;13.03;;;;;;;;;;5010392;28;20741;-70
2022/03/27 13:59:43;;;;;;;19.20;12.27;;;;;;;;;;5014367;28;20285;-71
2022/03/27 14:02:09;;;;;;;23.03;13.53;;;;;;;;;;5011012;28;20287;-71
2022/03/27 14:04:35;;;;;;;22.88;12.00;;;;;;;;;;4993380;28;20269;-71
2022/03/27 14:07:01;;;;;;;20.92;12.48;;;;;;;;;;5015387;28;20021;-72
2022/03/27 14:09:26;;;;;;;20.27;11.07;;;;;;;;;;4993153;28;20026;-71
2022/03/27 14:11:51;;;;;;;23.00;11.57;;;;;;;;;;5016005;28;20021;-71
2022/03/27 14:14:17;;;;;;;21.30;12.60;;;;;;;;;;4998272;28;20121;-70
2022/03/27 14:16:43;;;;;;;18.83;11.35;;;;;;;;;;5005316;28;20101;-70
2022/03/27 14:19:08;;;;;;;21.33;13.10;;;;;;;;;;5015971;28;20021;-70
2022/03/27 14:21:34;;;;;;;16.70;10.45;;;;;;;;;;5012520;28;20449;-71
2022/03/27 14:23:59;;;;;;;18.17;11.02;;;;;;;;;;5012210;28;20075;-71
2022/03/27 14:26:24;;;;;;;16.27;10.18;;;;;;;;;;5010665;28;20030;-71